Time;durP1;ratioP1;P1;durP2;ratioP2;P2;SDS_P1;SDS_P2;PMS_P1;PMS_P2;Temp;Humidity;BMP_temperature;BMP_pressure;BME280_temperature;BME280_humidity;BME280_pressure;Samples;Min_cycle;Max_cycle;Signal;HPM_P1;HPM_P2
2023/12/05 00:03:39;;;;;;;39.77;18.03;;;;;-2.50;95382.00;;;;8300258;28;20261;-78
2023/12/05 00:07:44;;;;;;;38.80;15.17;;;;;-2.60;95345.00;;;;8300086;28;20277;-78
2023/12/05 00:11:48;;;;;;;25.97;11.63;;;;;-3.00;95340.00;;;;8300204;28;20218;-76
2023/12/05 00:15:51;;;;;;;40.33;18.40;;;;;-3.20;95368.00;;;;8300323;28;20197;-76
2023/12/05 00:19:54;;;;;;;43.57;18.57;;;;;-3.00;95381.00;;;;8300097;28;20198;-76
2023/12/05 00:23:58;;;;;;;38.13;17.10;;;;;-2.90;95378.00;;;;8299795;28;20509;-77
2023/12/05 00:28:02;;;;;;;49.00;17.93;;;;;-2.90;95371.00;;;;8299719;28;20190;-78
2023/12/05 00:32:06;;;;;;;37.27;17.50;;;;;-2.80;95383.00;;;;8299327;28;20220;-77
2023/12/05 00:36:10;;;;;;;37.53;17.03;;;;;-2.70;95378.00;;;;8298380;28;20198;-77
2023/12/05 00:40:13;;;;;;;39.40;16.90;;;;;-2.70;95378.00;;;;8299228;28;20421;-77
2023/12/05 00:44:18;;;;;;;45.67;19.33;;;;;-2.60;95393.00;;;;8298919;28;20275;-77
2023/12/05 00:48:21;;;;;;;34.97;15.97;;;;;-2.50;95391.00;;;;8298876;28;20229;-77
2023/12/05 00:52:24;;;;;;;38.53;17.20;;;;;-2.50;95381.00;;;;8298859;28;20232;-77
2023/12/05 00:56:27;;;;;;;36.30;18.43;;;;;-2.50;95393.00;;;;8298035;28;20639;-77
2023/12/05 01:00:32;;;;;;;42.40;17.37;;;;;-2.50;95395.00;;;;8299123;28;20194;-77
2023/12/05 01:04:37;;;;;;;40.63;18.33;;;;;-2.50;95405.00;;;;8299554;28;20230;-77
2023/12/05 01:08:40;;;;;;;42.67;19.17;;;;;-2.40;95400.00;;;;8299929;28;20610;-77
2023/12/05 01:12:43;;;;;;;40.90;17.27;;;;;-2.40;95394.00;;;;8298519;28;20236;-77
2023/12/05 01:16:48;;;;;;;41.27;18.47;;;;;-2.40;95399.00;;;;8298699;28;20240;-77
2023/12/05 01:20:51;;;;;;;39.57;18.13;;;;;-2.40;95421.00;;;;8298743;28;20194;-77
2023/12/05 01:24:55;;;;;;;38.57;16.23;;;;;-2.30;95428.00;;;;8299022;28;20198;-77
2023/12/05 01:28:58;;;;;;;41.73;18.03;;;;;-2.30;95430.00;;;;8298992;28;20280;-77
2023/12/05 01:33:02;;;;;;;36.83;17.17;;;;;-2.20;95434.00;;;;8296287;28;20261;-77
2023/12/05 01:37:05;;;;;;;34.90;14.73;;;;;-2.20;95429.00;;;;8298548;28;20230;-77
2023/12/05 01:41:09;;;;;;;40.27;17.00;;;;;-2.20;95432.00;;;;8298717;28;20191;-77
2023/12/05 01:45:12;;;;;;;43.23;17.73;;;;;-2.20;95431.00;;;;8298362;28;20237;-77
2023/12/05 01:49:17;;;;;;;42.47;18.07;;;;;-2.20;95434.00;;;;8300786;28;20677;-77
2023/12/05 01:53:33;;;;;;;38.90;19.07;;;;;-2.20;95430.00;;;;8303911;28;20340;-78
2023/12/05 01:57:36;;;;;;;39.13;16.90;;;;;-2.20;95442.00;;;;8304165;28;20225;-78
2023/12/05 02:01:39;;;;;;;38.83;17.07;;;;;-2.20;95435.00;;;;8304297;28;20198;-77
2023/12/05 02:05:44;;;;;;;39.27;18.67;;;;;-2.20;95439.00;;;;8304515;28;20536;-78
2023/12/05 02:09:49;;;;;;;46.37;20.50;;;;;-2.20;95437.00;;;;8303231;28;20198;-79
2023/12/05 02:13:53;;;;;;;40.67;18.43;;;;;-2.10;95431.00;;;;8304592;28;20687;-79
2023/12/05 02:18:06;;;;;;;45.27;18.40;;;;;-2.10;95436.00;;;;8302802;28;20205;-78
2023/12/05 02:22:18;;;;;;;44.10;18.90;;;;;-2.10;95417.00;;;;8303841;28;20632;-78
2023/12/05 02:26:27;;;;;;;36.37;16.63;;;;;-2.10;95419.00;;;;8303838;28;20573;-78
2023/12/05 02:30:32;;;;;;;39.17;16.97;;;;;-2.10;95412.00;;;;8303618;28;20583;-78
2023/12/05 02:34:35;;;;;;;39.67;17.47;;;;;-2.20;95406.00;;;;8303419;28;20226;-78
2023/12/05 02:38:49;;;;;;;42.13;18.57;;;;;-2.20;95405.00;;;;8302777;28;20206;-78
2023/12/05 02:42:56;;;;;;;37.97;18.67;;;;;-2.20;95392.00;;;;8302781;28;20186;-78
2023/12/05 02:47:01;;;;;;;37.93;16.80;;;;;-2.20;95398.00;;;;8302048;28;20222;-78
2023/12/05 02:51:05;;;;;;;38.97;16.73;;;;;-2.20;95400.00;;;;8303578;28;20290;-78
2023/12/05 02:55:08;;;;;;;38.73;16.50;;;;;-2.10;95397.00;;;;8301917;28;20276;-78
2023/12/05 02:59:11;;;;;;;40.40;16.03;;;;;-2.20;95400.00;;;;8301656;28;20549;-78
2023/12/05 03:03:16;;;;;;;33.83;16.13;;;;;-2.20;95377.00;;;;8321245;22;21059;-79
2023/12/05 03:07:19;;;;;;;36.87;16.37;;;;;-2.20;95371.00;;;;8283475;28;20233;-78
2023/12/05 03:11:22;;;;;;;39.43;17.27;;;;;-2.20;95373.00;;;;8285239;28;20277;-79
2023/12/05 03:15:26;;;;;;;34.27;16.13;;;;;-2.20;95379.00;;;;8284596;28;20317;-78
2023/12/05 03:19:30;;;;;;;31.37;15.50;;;;;-2.10;95369.00;;;;8288713;28;20250;-79
2023/12/05 03:23:34;;;;;;;32.07;15.70;;;;;-2.10;95379.00;;;;8281211;28;20206;-80
2023/12/05 03:27:37;;;;;;;32.50;15.37;;;;;-2.00;95375.00;;;;8288533;28;20271;-79
2023/12/05 03:31:40;;;;;;;34.53;16.00;;;;;-2.00;95360.00;;;;8286578;28;20224;-79
2023/12/05 03:35:45;;;;;;;33.87;13.73;;;;;-2.00;95365.00;;;;8287774;28;20315;-79
2023/12/05 03:39:48;;;;;;;40.43;17.27;;;;;-2.10;95354.00;;;;8286961;28;20213;-79
2023/12/05 03:43:52;;;;;;;35.30;16.77;;;;;-2.10;95356.00;;;;8290094;28;21631;-79
2023/12/05 03:47:55;;;;;;;45.10;17.13;;;;;-2.10;95349.00;;;;8285601;28;20229;-78
2023/12/05 03:52:01;;;;;;;41.13;16.87;;;;;-2.10;95356.00;;;;8282614;28;20209;-79
2023/12/05 03:56:05;;;;;;;35.37;16.47;;;;;-2.00;95369.00;;;;8293674;28;20221;-77
2023/12/05 04:00:10;;;;;;;41.77;18.33;;;;;-2.00;95374.00;;;;8282593;28;20272;-77
2023/12/05 04:04:13;;;;;;;43.47;18.20;;;;;-2.00;95384.00;;;;8278936;28;20580;-77
2023/12/05 04:08:17;;;;;;;37.47;17.57;;;;;-1.90;95383.00;;;;8279404;28;20186;-77
2023/12/05 04:12:20;;;;;;;36.10;17.70;;;;;-2.00;95382.00;;;;8283681;28;20265;-77
2023/12/05 04:16:24;;;;;;;39.90;17.30;;;;;-2.00;95378.00;;;;8281772;28;20202;-77
2023/12/05 04:20:27;;;;;;;38.43;18.33;;;;;-1.90;95373.00;;;;8286434;28;20237;-77
2023/12/05 04:24:31;;;;;;;41.70;18.87;;;;;-1.90;95376.00;;;;8282003;28;20202;-77
2023/12/05 04:28:34;;;;;;;45.63;18.30;;;;;-1.90;95366.00;;;;8282038;28;20778;-77
2023/12/05 04:32:37;;;;;;;43.57;18.03;;;;;-1.90;95374.00;;;;8280371;28;20224;-76
2023/12/05 04:36:41;;;;;;;42.43;18.47;;;;;-1.90;95368.00;;;;8285656;28;20684;-76
2023/12/05 04:40:45;;;;;;;40.80;18.10;;;;;-1.90;95359.00;;;;8275481;28;20221;-75
2023/12/05 04:44:48;;;;;;;45.13;20.67;;;;;-1.90;95370.00;;;;8280417;28;20305;-75
2023/12/05 04:48:51;;;;;;;41.83;19.13;;;;;-1.90;95376.00;;;;8276019;28;20197;-75
2023/12/05 04:52:55;;;;;;;49.70;21.03;;;;;-1.90;95372.00;;;;8281976;28;20709;-74
2023/12/05 04:56:59;;;;;;;45.07;20.07;;;;;-1.90;95375.00;;;;8279928;28;20288;-73
2023/12/05 05:01:02;;;;;;;45.60;20.63;;;;;-1.80;95382.00;;;;8280282;28;20205;-72
2023/12/05 05:05:06;;;;;;;43.03;19.23;;;;;-1.80;95379.00;;;;8275327;28;20222;-72
2023/12/05 05:09:10;;;;;;;44.33;19.53;;;;;-1.70;95369.00;;;;8276805;28;20249;-73
2023/12/05 05:13:14;;;;;;;42.10;20.30;;;;;-1.70;95363.00;;;;8278336;28;20226;-72
2023/12/05 05:17:17;;;;;;;46.87;19.50;;;;;-1.70;95374.00;;;;8280908;28;20277;-73
2023/12/05 05:21:21;;;;;;;46.37;20.77;;;;;-1.70;95371.00;;;;8279991;28;20286;-73
2023/12/05 05:25:24;;;;;;;48.60;21.37;;;;;-1.80;95383.00;;;;8285794;28;20284;-72
2023/12/05 05:29:28;;;;;;;43.90;19.87;;;;;-1.80;95377.00;;;;8296609;28;20198;-73
2023/12/05 05:33:31;;;;;;;44.43;20.00;;;;;-1.80;95382.00;;;;8284304;28;20225;-72
2023/12/05 05:37:35;;;;;;;42.57;19.60;;;;;-1.80;95386.00;;;;8284589;28;20405;-73
2023/12/05 05:41:38;;;;;;;65.20;30.53;;;;;-1.80;95393.00;;;;8283659;28;20222;-72
2023/12/05 05:45:42;;;;;;;54.53;19.53;;;;;-1.80;95396.00;;;;8292648;28;20963;-72
2023/12/05 05:49:47;;;;;;;48.80;21.37;;;;;-1.80;95392.00;;;;8291752;28;20648;-73
2023/12/05 05:53:50;;;;;;;48.33;21.13;;;;;-1.90;95392.00;;;;8286155;28;20252;-73
2023/12/05 05:57:53;;;;;;;50.00;21.17;;;;;-1.90;95385.00;;;;8289438;28;20712;-73
2023/12/05 06:01:58;;;;;;;50.70;21.87;;;;;-1.80;95388.00;;;;8283182;28;20226;-73
2023/12/05 06:06:02;;;;;;;52.83;21.23;;;;;-1.80;95399.00;;;;8285443;28;20987;-73
2023/12/05 06:10:06;;;;;;;52.13;22.30;;;;;-1.80;95394.00;;;;8278618;28;20648;-74
2023/12/05 06:14:09;;;;;;;56.07;22.50;;;;;-1.70;95398.00;;;;8287921;28;20227;-74
2023/12/05 06:18:15;;;;;;;54.40;20.50;;;;;-1.60;95391.00;;;;8275533;28;20202;-75
2023/12/05 06:22:18;;;;;;;47.03;22.23;;;;;-1.70;95391.00;;;;8282326;28;20201;-73
2023/12/05 06:26:22;;;;;;;50.27;21.20;;;;;-1.60;95391.00;;;;8279213;28;20256;-74
2023/12/05 06:30:25;;;;;;;50.20;21.67;;;;;-1.60;95396.00;;;;8282470;28;20221;-74
2023/12/05 06:34:31;;;;;;;55.97;21.53;;;;;-1.60;95390.00;;;;8285321;28;20222;-74
2023/12/05 06:38:34;;;;;;;45.53;20.87;;;;;-1.50;95407.00;;;;8284912;28;20857;-74
2023/12/05 06:42:40;;;;;;;54.00;22.30;;;;;-1.60;95406.00;;;;8283617;28;20305;-73
2023/12/05 06:46:43;;;;;;;42.07;17.43;;;;;-1.50;95404.00;;;;8286072;28;20195;-72
2023/12/05 06:50:48;;;;;;;48.23;19.20;;;;;-1.50;95405.00;;;;8277075;28;20217;-71
2023/12/05 06:54:51;;;;;;;54.13;22.40;;;;;-1.50;95402.00;;;;8282443;28;20785;-72
2023/12/05 06:58:54;;;;;;;51.80;22.40;;;;;-1.50;95416.00;;;;8281975;28;20201;-71
2023/12/05 07:02:57;;;;;;;55.43;24.00;;;;;-1.40;95420.00;;;;8278012;28;20735;-72
2023/12/05 07:07:02;;;;;;;56.83;23.77;;;;;-1.30;95414.00;;;;8283746;28;20205;-72
2023/12/05 07:11:06;;;;;;;48.10;21.67;;;;;-1.20;95418.00;;;;8282980;28;20202;-73
2023/12/05 07:15:10;;;;;;;51.77;22.30;;;;;-1.20;95432.00;;;;8282747;28;20227;-71
2023/12/05 07:19:13;;;;;;;51.13;21.77;;;;;-1.20;95428.00;;;;8282382;28;20611;-73
2023/12/05 07:23:17;;;;;;;60.07;23.23;;;;;-1.20;95435.00;;;;8281483;28;20194;-75
2023/12/05 07:27:21;;;;;;;40.57;17.80;;;;;-1.20;95434.00;;;;8282570;28;20194;-75
2023/12/05 07:31:24;;;;;;;51.27;22.13;;;;;-1.30;95438.00;;;;8282643;28;20637;-75
2023/12/05 07:35:27;;;;;;;52.30;24.07;;;;;-1.20;95442.00;;;;8290721;28;20316;-75
2023/12/05 07:39:32;;;;;;;56.60;23.50;;;;;-1.10;95462.00;;;;8285990;28;21070;-75
2023/12/05 07:43:36;;;;;;;57.37;23.43;;;;;-1.10;95468.00;;;;8282196;28;20208;-77
2023/12/05 07:47:39;;;;;;;53.87;22.60;;;;;-1.10;95459.00;;;;8284744;28;20221;-75
2023/12/05 07:51:42;;;;;;;56.17;23.17;;;;;-1.00;95453.00;;;;8282285;28;20266;-76
2023/12/05 07:55:47;;;;;;;54.20;24.90;;;;;-1.00;95450.00;;;;8284291;28;20225;-76
2023/12/05 07:59:50;;;;;;;54.13;22.80;;;;;-0.90;95461.00;;;;8281615;28;20570;-76
2023/12/05 08:03:53;;;;;;;50.13;22.47;;;;;-0.90;95459.00;;;;8282470;28;20947;-75
2023/12/05 08:07:57;;;;;;;57.80;23.87;;;;;-0.90;95451.00;;;;8277025;28;20194;-76
2023/12/05 08:12:02;;;;;;;51.80;22.10;;;;;-0.80;95446.00;;;;8281981;28;20759;-76
2023/12/05 08:16:06;;;;;;;55.97;23.60;;;;;-0.70;95461.00;;;;8280683;28;20676;-77
2023/12/05 08:20:10;;;;;;;49.90;22.83;;;;;-0.60;95454.00;;;;8280536;28;20211;-75
2023/12/05 08:24:13;;;;;;;50.43;22.37;;;;;-0.50;95470.00;;;;8274383;28;20205;-75
2023/12/05 08:28:18;;;;;;;52.80;23.27;;;;;-0.50;95454.00;;;;8273499;28;20708;-76
2023/12/05 08:32:21;;;;;;;50.87;21.90;;;;;-0.40;95448.00;;;;8276226;28;20208;-74
2023/12/05 08:36:24;;;;;;;46.80;21.47;;;;;-0.30;95442.00;;;;8280765;28;20313;-76
2023/12/05 08:40:27;;;;;;;54.13;24.27;;;;;-0.20;95453.00;;;;8281243;28;20203;-74
2023/12/05 08:44:32;;;;;;;48.90;20.93;;;;;-0.20;95463.00;;;;8281884;28;20833;-75
2023/12/05 08:48:35;;;;;;;46.20;19.27;;;;;-0.10;95465.00;;;;8276913;28;20238;-73
2023/12/05 08:52:39;;;;;;;49.80;21.53;;;;;0.00;95462.00;;;;8275691;28;20911;-73
2023/12/05 08:56:42;;;;;;;58.93;24.73;;;;;-0.10;95474.00;;;;8279079;28;20228;-72
2023/12/05 09:00:47;;;;;;;49.07;21.80;;;;;0.00;95469.00;;;;8285489;28;20645;-73
2023/12/05 09:04:50;;;;;;;49.63;22.23;;;;;0.10;95477.00;;;;8292615;28;20227;-73
2023/12/05 09:08:54;;;;;;;52.60;23.17;;;;;0.10;95475.00;;;;8285220;28;20206;-72
2023/12/05 09:12:57;;;;;;;50.50;22.70;;;;;0.10;95475.00;;;;8286976;28;20255;-73
2023/12/05 09:17:03;;;;;;;46.77;21.40;;;;;0.10;95480.00;;;;8281211;28;20221;-73
2023/12/05 09:21:08;;;;;;;52.77;23.50;;;;;0.00;95486.00;;;;8284286;28;20212;-73
2023/12/05 09:25:11;;;;;;;52.10;23.60;;;;;0.20;95477.00;;;;8285718;28;20242;-73
2023/12/05 09:29:14;;;;;;;52.90;22.73;;;;;0.30;95485.00;;;;8285949;28;20212;-73
2023/12/05 09:33:18;;;;;;;46.47;21.97;;;;;0.40;95488.00;;;;8285178;28;20200;-75
2023/12/05 09:37:22;;;;;;;49.87;21.47;;;;;0.40;95508.00;;;;8282767;28;20261;-74
2023/12/05 09:41:27;;;;;;;49.60;22.03;;;;;0.50;95500.00;;;;8283668;28;20205;-75
2023/12/05 09:45:37;;;;;;;53.87;23.87;;;;;0.70;95500.00;;;;8283027;28;20229;-75
2023/12/05 09:49:42;;;;;;;50.27;21.53;;;;;0.80;95494.00;;;;8282623;28;20207;-74
2023/12/05 09:53:45;;;;;;;53.40;24.03;;;;;0.80;95485.00;;;;8282265;28;20520;-76
2023/12/05 09:57:49;;;;;;;48.90;21.70;;;;;0.90;95485.00;;;;8278615;28;20325;-74
2023/12/05 10:01:56;;;;;;;51.97;23.93;;;;;0.90;95478.00;;;;8284701;28;20716;-74
2023/12/05 10:06:03;;;;;;;55.13;24.30;;;;;1.00;95464.00;;;;8283860;28;20253;-77
2023/12/05 10:10:08;;;;;;;46.70;20.43;;;;;1.10;95465.00;;;;8281145;28;20595;-75
2023/12/05 10:14:11;;;;;;;57.33;24.70;;;;;1.10;95472.00;;;;8276215;28;20880;-76
2023/12/05 10:18:14;;;;;;;49.60;22.27;;;;;1.20;95468.00;;;;8279174;28;20324;-74
2023/12/05 10:22:22;;;;;;;49.00;22.50;;;;;1.40;95471.00;;;;8285693;28;20288;-74
2023/12/05 10:26:26;;;;;;;57.67;26.97;;;;;1.60;95473.00;;;;8286288;28;20239;-76
2023/12/05 10:30:37;;;;;;;41.57;19.57;;;;;1.80;95468.00;;;;8278300;28;20202;-74
2023/12/05 10:34:48;;;;;;;45.30;22.23;;;;;1.80;95469.00;;;;8283492;28;20208;-75
2023/12/05 10:38:52;;;;;;;44.30;21.60;;;;;1.80;95451.00;;;;8283081;28;20601;-75
2023/12/05 10:42:55;;;;;;;46.77;22.70;;;;;1.80;95464.00;;;;8281624;28;20201;-74
2023/12/05 10:46:59;;;;;;;48.10;22.63;;;;;1.90;95463.00;;;;8282053;28;20202;-76
2023/12/05 10:51:03;;;;;;;43.87;21.17;;;;;2.00;95458.00;;;;8280591;28;20319;-77
2023/12/05 10:55:08;;;;;;;50.57;23.13;;;;;2.10;95483.00;;;;8277480;28;20661;-78
2023/12/05 10:59:12;;;;;;;46.63;21.67;;;;;2.20;95479.00;;;;8276110;28;20219;-76
2023/12/05 11:03:16;;;;;;;53.43;24.87;;;;;2.10;95484.00;;;;8282434;28;20225;-77
2023/12/05 11:07:19;;;;;;;57.60;23.70;;;;;2.10;95480.00;;;;8280696;28;20215;-75
2023/12/05 11:11:25;;;;;;;52.77;22.43;;;;;2.20;95476.00;;;;8282999;28;20232;-76
2023/12/05 11:15:31;;;;;;;45.53;21.87;;;;;2.30;95487.00;;;;8277238;28;20261;-76
2023/12/05 11:19:45;;;;;;;48.73;22.70;;;;;2.20;95495.00;;;;8277513;28;20252;-74
2023/12/05 11:24:03;;;;;;;50.57;23.70;;;;;2.10;95481.00;;;;8274676;28;20212;-75
2023/12/05 11:28:27;;;;;;;54.40;24.30;;;;;2.00;95487.00;;;;8275653;28;20568;-74
2023/12/05 11:32:39;;;;;;;54.97;24.13;;;;;1.90;95485.00;;;;8277259;28;20200;-74
2023/12/05 11:36:55;;;;;;;47.67;21.87;;;;;1.90;95471.00;;;;8274076;28;20232;-73
2023/12/05 11:41:12;;;;;;;48.97;23.87;;;;;1.90;95478.00;;;;8272886;28;20680;-74
2023/12/05 11:45:23;;;;;;;51.00;21.83;;;;;1.90;95475.00;;;;8269940;28;20339;-75
2023/12/05 11:49:37;;;;;;;48.27;22.27;;;;;2.00;95476.00;;;;8272044;28;20198;-75
2023/12/05 11:53:40;;;;;;;47.50;21.80;;;;;1.90;95480.00;;;;8275050;28;20254;-75
2023/12/05 11:57:43;;;;;;;43.73;22.87;;;;;1.90;95484.00;;;;8274091;28;20234;-75
2023/12/05 12:01:49;;;;;;;51.33;22.43;;;;;2.00;95482.00;;;;8274860;28;20224;-75
2023/12/05 12:06:02;;;;;;;46.17;22.77;;;;;2.20;95472.00;;;;8268601;28;20272;-74
2023/12/05 12:10:05;;;;;;;49.80;23.40;;;;;2.50;95484.00;;;;8276749;28;20200;-73
2023/12/05 12:14:16;;;;;;;44.30;22.00;;;;;2.60;95494.00;;;;8272348;28;20821;-74
2023/12/05 12:18:26;;;;;;;48.10;21.73;;;;;2.80;95488.00;;;;8270196;28;20218;-76
2023/12/05 12:22:43;;;;;;;49.67;21.90;;;;;3.00;95503.00;;;;8270505;28;20655;-73
2023/12/05 12:26:52;;;;;;;46.57;22.63;;;;;3.20;95499.00;;;;8272728;28;20225;-75
2023/12/05 12:30:56;;;;;;;45.70;20.53;;;;;3.40;95486.00;;;;8270406;28;20194;-77
2023/12/05 12:35:02;;;;;;;45.47;23.30;;;;;3.50;95492.00;;;;8273053;28;20640;-76
2023/12/05 12:39:05;;;;;;;48.23;22.23;;;;;3.70;95493.00;;;;8269057;28;20348;-78
2023/12/05 12:43:09;;;;;;;49.73;23.43;;;;;3.70;95487.00;;;;8273765;28;20296;-77
2023/12/05 12:47:13;;;;;;;43.57;21.53;;;;;3.70;95488.00;;;;8271918;28;20194;-75
2023/12/05 12:51:19;;;;;;;43.73;21.60;;;;;3.70;95486.00;;;;8272139;28;20277;-75
2023/12/05 12:55:22;;;;;;;41.50;21.67;;;;;3.60;95480.00;;;;8270901;28;20233;-77
2023/12/05 12:59:26;;;;;;;40.10;20.37;;;;;3.50;95479.00;;;;8274585;28;20225;-74
2023/12/05 13:03:29;;;;;;;43.93;21.03;;;;;3.40;95462.00;;;;8298784;28;20221;-73
2023/12/05 13:07:34;;;;;;;39.23;19.40;;;;;3.30;95467.00;;;;8298160;28;20201;-73
2023/12/05 13:11:37;;;;;;;43.30;20.77;;;;;3.20;95466.00;;;;8299182;28;20271;-73
2023/12/05 13:15:43;;;;;;;35.60;19.93;;;;;3.00;95465.00;;;;8297641;28;20212;-69
2023/12/05 13:19:47;;;;;;;42.20;21.03;;;;;2.90;95464.00;;;;8298672;28;20184;-69
2023/12/05 13:23:52;;;;;;;44.63;20.43;;;;;2.80;95463.00;;;;8298915;28;20296;-69
2023/12/05 13:27:55;;;;;;;39.77;19.77;;;;;2.70;95451.00;;;;8298213;28;20225;-69
2023/12/05 13:31:59;;;;;;;40.33;20.37;;;;;2.60;95458.00;;;;8297790;28;20213;-69
2023/12/05 13:36:02;;;;;;;47.03;20.90;;;;;2.50;95450.00;;;;8298022;28;20221;-69
2023/12/05 13:40:09;;;;;;;36.33;19.17;;;;;2.50;95449.00;;;;8298382;28;20200;-70
2023/12/05 13:44:12;;;;;;;46.63;21.50;;;;;2.40;95458.00;;;;8300003;28;20295;-71
2023/12/05 13:48:16;;;;;;;39.27;20.20;;;;;2.30;95458.00;;;;8304345;28;20288;-70
2023/12/05 13:52:19;;;;;;;35.73;19.23;;;;;2.20;95458.00;;;;8303863;28;20197;-71
2023/12/05 13:56:24;;;;;;;40.97;20.20;;;;;2.10;95466.00;;;;8304445;28;20256;-70
2023/12/05 14:00:27;;;;;;;46.30;21.23;;;;;2.00;95459.00;;;;8303316;28;20198;-71
2023/12/05 14:04:30;;;;;;;43.27;20.90;;;;;1.90;95462.00;;;;8303999;28;20750;-71
2023/12/05 14:08:34;;;;;;;43.27;21.20;;;;;1.80;95476.00;;;;8303264;28;20235;-71
2023/12/05 14:12:38;;;;;;;42.20;19.23;;;;;1.70;95469.00;;;;8303450;28;20196;-71
2023/12/05 14:16:42;;;;;;;49.10;22.20;;;;;1.60;95477.00;;;;8303706;28;20216;-70
2023/12/05 14:20:45;;;;;;;52.00;24.53;;;;;1.50;95488.00;;;;8303905;28;20221;-71
2023/12/05 14:24:49;;;;;;;45.27;20.87;;;;;1.40;95480.00;;;;8303732;28;20295;-70
2023/12/05 14:28:53;;;;;;;52.67;23.20;;;;;1.40;95485.00;;;;8301935;28;20196;-71
2023/12/05 14:32:56;;;;;;;49.43;23.20;;;;;1.40;95491.00;;;;8302606;28;20201;-70
2023/12/05 14:37:01;;;;;;;50.77;22.33;;;;;1.30;95481.00;;;;8303140;28;20225;-70
2023/12/05 14:41:05;;;;;;;48.07;20.70;;;;;1.10;95492.00;;;;8303029;28;20199;-70
2023/12/05 14:45:10;;;;;;;46.57;22.43;;;;;1.10;95490.00;;;;8302098;28;20194;-70
2023/12/05 14:49:14;;;;;;;52.47;24.70;;;;;1.00;95500.00;;;;8302195;28;20201;-70
2023/12/05 14:53:17;;;;;;;47.80;21.70;;;;;1.00;95502.00;;;;8302985;28;20191;-70
2023/12/05 14:57:21;;;;;;;48.23;22.47;;;;;1.00;95513.00;;;;8299653;28;20272;-70
2023/12/05 15:01:28;;;;;;;51.93;23.63;;;;;1.00;95515.00;;;;8299836;28;20197;-70
2023/12/05 15:05:31;;;;;;;54.57;25.80;;;;;1.00;95523.00;;;;8298777;28;20196;-70
2023/12/05 15:09:35;;;;;;;51.83;24.23;;;;;1.00;95518.00;;;;8301168;28;20198;-71
2023/12/05 15:13:38;;;;;;;81.83;42.13;;;;;1.00;95525.00;;;;8299919;28;20257;-70
2023/12/05 15:17:43;;;;;;;846.90;401.73;;;;;1.00;95525.00;;;;8300746;28;20643;-70
2023/12/05 15:21:46;;;;;;;80.97;39.07;;;;;1.10;95533.00;;;;8301408;28;20287;-70
2023/12/05 15:25:50;;;;;;;60.43;28.00;;;;;1.10;95531.00;;;;8300783;28;20191;-71
2023/12/05 15:29:55;;;;;;;128.23;59.30;;;;;1.10;95538.00;;;;8299734;28;20200;-71
2023/12/05 15:34:00;;;;;;;340.50;139.47;;;;;1.20;95539.00;;;;8300450;28;20254;-70
2023/12/05 15:38:03;;;;;;;538.00;240.73;;;;;1.20;95550.00;;;;8298959;28;20544;-71
2023/12/05 15:42:07;;;;;;;64.10;32.43;;;;;1.10;95538.00;;;;8298803;28;20195;-70
2023/12/05 15:46:21;;;;;;;152.07;66.70;;;;;1.10;95541.00;;;;8298366;28;20285;-70
2023/12/05 15:50:26;;;;;;;66.43;28.20;;;;;1.10;95538.00;;;;8298097;28;20228;-70
2023/12/05 15:54:32;;;;;;;310.63;112.63;;;;;1.10;95548.00;;;;8299961;28;20269;-69
2023/12/05 15:58:36;;;;;;;71.10;33.33;;;;;1.00;95555.00;;;;8282056;28;20286;-69
2023/12/05 16:02:39;;;;;;;57.23;26.97;;;;;1.00;95550.00;;;;8299499;28;20255;-69
2023/12/05 16:06:44;;;;;;;61.83;28.77;;;;;1.00;95554.00;;;;8297899;28;20200;-70
2023/12/05 16:10:47;;;;;;;65.50;32.63;;;;;1.00;95565.00;;;;8299772;28;20294;-70
2023/12/05 16:14:50;;;;;;;59.17;27.73;;;;;1.10;95558.00;;;;8299952;28;20634;-71
2023/12/05 16:18:54;;;;;;;147.40;100.07;;;;;1.10;95553.00;;;;8298222;28;20315;-71
2023/12/05 16:22:58;;;;;;;53.80;26.73;;;;;1.10;95551.00;;;;8299385;28;20206;-71
2023/12/05 16:27:01;;;;;;;46.37;23.10;;;;;1.10;95547.00;;;;8300143;28;20713;-71
2023/12/05 16:31:05;;;;;;;58.10;26.03;;;;;1.00;95555.00;;;;8299507;28;20190;-69
2023/12/05 16:35:10;;;;;;;55.40;26.53;;;;;0.90;95543.00;;;;8298513;28;20209;-69
2023/12/05 16:39:15;;;;;;;54.83;27.27;;;;;0.80;95551.00;;;;8299472;28;20626;-70
2023/12/05 16:43:18;;;;;;;105.87;72.37;;;;;0.60;95544.00;;;;8298173;28;20201;-70
2023/12/05 16:47:21;;;;;;;83.53;50.87;;;;;0.50;95553.00;;;;8298299;28;20615;-72
2023/12/05 16:51:28;;;;;;;67.27;34.60;;;;;0.40;95552.00;;;;8294954;28;20192;-71
2023/12/05 16:55:33;;;;;;;61.67;29.60;;;;;0.30;95554.00;;;;8297168;28;20190;-70
2023/12/05 16:59:36;;;;;;;48.03;23.90;;;;;0.30;95549.00;;;;8298015;28;20223;-70
2023/12/05 17:03:39;;;;;;;57.17;25.67;;;;;0.20;95558.00;;;;8299069;28;20703;-70
2023/12/05 17:07:43;;;;;;;53.03;24.93;;;;;0.20;95565.00;;;;8297820;28;20201;-70
2023/12/05 17:11:49;;;;;;;57.93;24.30;;;;;0.20;95563.00;;;;8296914;28;20574;-71
2023/12/05 17:15:52;;;;;;;48.40;24.40;;;;;0.10;95570.00;;;;8298936;28;20218;-70
2023/12/05 17:19:55;;;;;;;55.80;23.90;;;;;0.00;95567.00;;;;8301085;28;20226;-70
2023/12/05 17:23:58;;;;;;;58.37;26.80;;;;;0.00;95568.00;;;;8304262;28;20285;-70
2023/12/05 17:28:03;;;;;;;59.90;25.33;;;;;-0.10;95568.00;;;;8305397;28;20208;-70
2023/12/05 17:32:07;;;;;;;61.37;26.37;;;;;-0.10;95566.00;;;;8302201;28;20282;-70
2023/12/05 17:36:10;;;;;;;55.47;25.00;;;;;-0.20;95555.00;;;;8304190;28;20237;-69
2023/12/05 17:40:13;;;;;;;55.97;24.73;;;;;-0.20;95558.00;;;;8303970;28;20268;-70
2023/12/05 17:44:18;;;;;;;52.10;24.33;;;;;-0.30;95555.00;;;;8303936;28;20203;-69
2023/12/05 17:48:22;;;;;;;52.67;24.40;;;;;-0.40;95559.00;;;;8303323;28;20191;-70
2023/12/05 17:52:25;;;;;;;59.23;25.53;;;;;-0.50;95569.00;;;;8303407;28;20281;-70
2023/12/05 17:56:28;;;;;;;53.80;25.93;;;;;-0.70;95569.00;;;;8303949;28;20629;-70
2023/12/05 18:00:33;;;;;;;62.53;26.80;;;;;-0.80;95557.00;;;;8302613;28;20312;-70
2023/12/05 18:04:36;;;;;;;62.37;30.30;;;;;-0.80;95567.00;;;;8304359;28;20222;-70
2023/12/05 18:08:39;;;;;;;60.70;26.73;;;;;-0.80;95568.00;;;;8303622;28;20214;-70
2023/12/05 18:12:43;;;;;;;60.00;26.00;;;;;-1.00;95567.00;;;;8303431;28;20201;-70
2023/12/05 18:16:48;;;;;;;64.27;25.43;;;;;-1.10;95563.00;;;;8302403;28;20194;-68
2023/12/05 18:20:52;;;;;;;57.33;24.53;;;;;-1.40;95566.00;;;;8300968;28;20323;-69
2023/12/05 18:24:55;;;;;;;55.40;24.13;;;;;-1.50;95570.00;;;;8302454;28;20205;-69
2023/12/05 18:28:58;;;;;;;61.17;27.67;;;;;-1.50;95578.00;;;;8301475;28;20198;-69
2023/12/05 18:33:03;;;;;;;60.30;26.47;;;;;-1.40;95575.00;;;;8302412;28;20308;-68
2023/12/05 18:37:06;;;;;;;58.17;25.57;;;;;-1.40;95574.00;;;;8302265;28;20213;-68
2023/12/05 18:41:10;;;;;;;57.47;25.90;;;;;-1.40;95582.00;;;;8302246;28;20222;-68
2023/12/05 18:45:13;;;;;;;65.40;26.80;;;;;-1.50;95568.00;;;;8302193;28;20229;-68
2023/12/05 18:49:20;;;;;;;66.67;25.93;;;;;-1.50;95570.00;;;;8301912;28;20202;-68
2023/12/05 18:53:28;;;;;;;67.07;27.23;;;;;-1.40;95576.00;;;;8302914;28;20188;-68
2023/12/05 18:57:31;;;;;;;66.00;26.80;;;;;-1.40;95578.00;;;;8300541;28;20249;-68
2023/12/05 19:01:34;;;;;;;59.63;27.07;;;;;-1.40;95581.00;;;;8301308;28;20329;-69
2023/12/05 19:05:40;;;;;;;71.10;27.93;;;;;-1.30;95580.00;;;;8299181;28;20186;-69
2023/12/05 19:09:44;;;;;;;60.43;26.10;;;;;-1.40;95583.00;;;;8297869;28;20596;-69
2023/12/05 19:13:47;;;;;;;69.43;28.23;;;;;-1.40;95565.00;;;;8301059;28;20649;-69
2023/12/05 19:17:50;;;;;;;57.90;25.20;;;;;-1.30;95578.00;;;;8300339;28;20225;-68
2023/12/05 19:21:55;;;;;;;63.33;26.83;;;;;-1.30;95583.00;;;;8297071;28;20294;-69
2023/12/05 19:25:58;;;;;;;65.07;26.97;;;;;-1.20;95586.00;;;;8300661;28;20224;-69
2023/12/05 19:30:02;;;;;;;60.30;26.30;;;;;-1.30;95584.00;;;;8300764;28;20544;-69
2023/12/05 19:34:06;;;;;;;60.37;25.33;;;;;-1.40;95577.00;;;;8301199;28;20210;-69
2023/12/05 19:38:11;;;;;;;57.87;24.93;;;;;-1.50;95580.00;;;;8300937;28;20281;-69
2023/12/05 19:42:17;;;;;;;55.97;25.17;;;;;-1.70;95583.00;;;;8299521;28;20203;-69
2023/12/05 19:46:21;;;;;;;60.77;26.27;;;;;-1.80;95589.00;;;;8299038;28;20182;-69
2023/12/05 19:50:34;;;;;;;59.83;24.57;;;;;-1.80;95593.00;;;;8297579;28;20236;-70
2023/12/05 19:54:38;;;;;;;71.90;28.37;;;;;-1.80;95593.00;;;;8299630;28;20184;-69
2023/12/05 19:58:42;;;;;;;64.63;25.93;;;;;-1.80;95591.00;;;;8299506;28;20232;-69
2023/12/05 20:02:45;;;;;;;67.07;27.87;;;;;-1.70;95588.00;;;;8299449;28;20560;-69